Time;durP1;ratioP1;P1;durP2;ratioP2;P2;SDS_P1;SDS_P2;PMS_P1;PMS_P2;Temp;Humidity;BMP_temperature;BMP_pressure;BME280_temperature;BME280_humidity;BME280_pressure;Samples;Min_cycle;Max_cycle;Signal;HPM_P1;HPM_P2
2021/01/27 04:08:15;;;;;;;8.48;7.65;;;2.80;99.90;;;;;;5617981;23;20226;-73
2021/01/27 04:10:41;;;;;;;8.18;7.43;;;2.80;99.90;;;;;;4972673;28;20198;-74
2021/01/27 04:13:07;;;;;;;8.68;7.88;;;2.80;99.90;;;;;;4980972;28;20194;-73
2021/01/27 04:15:33;;;;;;;8.80;7.28;;;2.80;99.90;;;;;;4993485;28;20217;-73
2021/01/27 04:17:59;;;;;;;8.68;7.68;;;2.80;99.90;;;;;;4992184;28;20240;-73
2021/01/27 04:20:26;;;;;;;8.30;7.57;;;2.80;99.90;;;;;;4992423;28;20584;-73
2021/01/27 04:22:52;;;;;;;8.77;7.93;;;2.80;99.90;;;;;;4992724;28;20186;-73
2021/01/27 04:25:19;;;;;;;7.95;7.25;;;2.80;99.90;;;;;;4993143;28;20170;-73
2021/01/27 04:27:45;;;;;;;8.98;7.97;;;2.80;99.90;;;;;;4992739;28;20224;-73
2021/01/27 04:30:14;;;;;;;8.98;7.78;;;2.80;99.90;;;;;;4991788;28;20209;-73
2021/01/27 04:32:40;;;;;;;8.55;7.75;;;2.80;99.90;;;;;;4993177;28;20206;-73
2021/01/27 04:35:07;;;;;;;8.82;7.93;;;2.80;99.90;;;;;;4993096;28;20214;-74
2021/01/27 04:37:33;;;;;;;8.73;7.82;;;2.80;99.90;;;;;;4993185;28;20174;-74
2021/01/27 04:39:58;;;;;;;8.70;7.82;;;2.80;99.90;;;;;;4992283;28;20178;-73
2021/01/27 04:42:29;;;;;;;11.65;8.10;;;2.90;99.90;;;;;;4993120;28;20195;-74
2021/01/27 04:44:56;;;;;;;8.80;7.97;;;2.80;99.90;;;;;;4991691;28;20182;-73
2021/01/27 04:47:30;;;;;;;8.77;7.88;;;2.80;99.90;;;;;;4992989;28;20577;-73
2021/01/27 04:50:03;;;;;;;9.85;8.85;;;2.80;99.90;;;;;;4992933;28;20860;-73
2021/01/27 04:52:56;;;;;;;9.52;7.80;;;2.80;99.90;;;;;;4991734;28;20174;-73
2021/01/27 04:55:30;;;;;;;8.88;7.97;;;2.80;99.90;;;;;;4991480;28;20217;-73
2021/01/27 04:58:19;;;;;;;9.30;8.40;;;2.80;99.90;;;;;;4991661;28;20559;-73
2021/01/27 05:00:57;;;;;;;8.82;7.97;;;2.80;99.90;;;;;;4992413;28;20177;-73
2021/01/27 05:03:49;;;;;;;9.13;7.97;;;2.80;99.90;;;;;;4992819;28;20251;-73
2021/01/27 05:06:23;;;;;;;9.02;8.13;;;2.80;99.90;;;;;;4990897;28;20216;-73
2021/01/27 05:08:56;;;;;;;9.25;8.30;;;2.80;99.90;;;;;;4992389;28;20237;-73
2021/01/27 05:11:23;;;;;;;9.80;8.80;;;2.80;99.90;;;;;;4991102;28;20235;-74
2021/01/27 05:13:51;;;;;;;9.98;9.00;;;2.80;99.90;;;;;;4990986;28;20197;-74
2021/01/27 05:16:24;;;;;;;9.07;8.18;;;2.80;99.90;;;;;;4992592;28;20228;-73
2021/01/27 05:18:52;;;;;;;10.07;8.88;;;2.80;99.90;;;;;;4992768;28;20202;-73
2021/01/27 05:21:28;;;;;;;9.68;8.73;;;2.80;99.90;;;;;;4991025;28;20174;-73
2021/01/27 05:23:55;;;;;;;9.10;8.30;;;2.80;99.90;;;;;;4990871;28;20691;-73
2021/01/27 05:26:26;;;;;;;10.20;9.00;;;2.80;99.90;;;;;;4992239;28;20181;-73
2021/01/27 05:29:05;;;;;;;10.02;9.02;;;2.80;99.90;;;;;;4992624;28;20194;-74
2021/01/27 05:32:00;;;;;;;11.35;9.07;;;2.80;99.90;;;;;;4991217;28;20240;-74
2021/01/27 05:34:32;;;;;;;9.70;8.48;;;2.80;99.90;;;;;;4992478;28;20228;-74
2021/01/27 05:36:58;;;;;;;10.23;9.23;;;2.80;99.90;;;;;;4992081;28;20181;-73
2021/01/27 05:39:28;;;;;;;9.85;8.90;;;2.90;99.90;;;;;;4992092;28;20197;-73
2021/01/27 05:42:27;;;;;;;10.93;9.70;;;3.00;99.90;;;;;;4992349;28;20194;-74
2021/01/27 05:44:58;;;;;;;10.52;9.43;;;2.90;99.90;;;;;;4973435;28;20196;-73
2021/01/27 05:47:35;;;;;;;10.07;9.07;;;2.80;99.90;;;;;;4978246;28;20242;-73
2021/01/27 05:50:37;;;;;;;10.20;9.18;;;2.80;99.90;;;;;;4983454;28;20189;-73
2021/01/27 05:53:15;;;;;;;11.43;10.25;;;2.80;99.90;;;;;;4941691;29;20226;-73
2021/01/27 05:56:13;;;;;;;10.05;9.05;;;2.90;99.90;;;;;;4942004;29;20233;-72
2021/01/27 05:58:54;;;;;;;10.82;9.73;;;2.80;99.90;;;;;;4943257;29;20687;-73
2021/01/27 06:01:27;;;;;;;11.15;9.60;;;2.80;99.90;;;;;;4943152;29;20595;-73
2021/01/27 06:04:06;;;;;;;9.93;9.00;;;2.80;99.90;;;;;;4934754;29;20207;-73
2021/01/27 06:06:34;;;;;;;9.75;8.77;;;2.80;99.90;;;;;;4944535;29;20268;-73
2021/01/27 06:09:04;;;;;;;10.20;9.23;;;2.90;99.90;;;;;;4915491;29;20250;-74
2021/01/27 06:11:29;;;;;;;10.23;9.23;;;2.90;99.90;;;;;;4932076;29;20176;-74
2021/01/27 06:14:07;;;;;;;10.23;9.30;;;2.80;99.90;;;;;;4933988;29;20231;-74
2021/01/27 06:16:45;;;;;;;11.70;9.98;;;2.80;99.90;;;;;;4954703;29;20608;-73
2021/01/27 06:19:17;;;;;;;11.63;10.50;;;2.80;99.90;;;;;;4936479;29;20507;-73
2021/01/27 06:22:03;;;;;;;10.20;9.30;;;2.80;99.90;;;;;;4954672;29;20299;-73
2021/01/27 06:24:40;;;;;;;12.50;9.48;;;2.80;99.90;;;;;;4954115;29;20203;-73
2021/01/27 06:27:21;;;;;;;9.50;8.60;;;2.90;99.90;;;;;;4976495;28;20231;-73
2021/01/27 06:30:18;;;;;;;10.65;9.65;;;2.90;99.90;;;;;;4995570;28;20173;-73
2021/01/27 06:33:18;;;;;;;11.15;9.20;;;2.90;99.90;;;;;;4994685;28;20664;-77
2021/01/27 06:36:06;;;;;;;11.98;8.65;;;2.90;99.90;;;;;;4994717;28;20205;-73
2021/01/27 06:39:09;;;;;;;10.80;9.32;;;2.90;99.90;;;;;;4994638;28;20217;-72
2021/01/27 06:42:14;;;;;;;10.35;8.93;;;2.90;99.90;;;;;;4995189;28;20173;-73
2021/01/27 06:44:45;;;;;;;11.32;9.20;;;2.90;99.90;;;;;;4989487;28;20194;-73
2021/01/27 06:47:16;;;;;;;10.63;9.52;;;2.90;99.90;;;;;;4995143;28;20208;-73
2021/01/27 06:50:06;;;;;;;10.50;9.35;;;2.90;99.90;;;;;;4993058;28;20178;-73
2021/01/27 06:52:37;;;;;;;10.85;9.38;;;2.90;99.90;;;;;;4994867;28;20170;-73
2021/01/27 06:55:20;;;;;;;11.50;8.98;;;2.90;99.90;;;;;;4991820;28;20225;-73
2021/01/27 06:57:49;;;;;;;8.88;8.02;;;2.90;99.90;;;;;;4994255;28;20202;-73
2021/01/27 07:00:28;;;;;;;9.20;8.30;;;2.90;99.90;;;;;;4994309;28;20212;-73
2021/01/27 07:03:22;;;;;;;10.75;8.57;;;2.90;99.90;;;;;;4994675;28;20193;-73
2021/01/27 07:06:19;;;;;;;10.27;9.02;;;2.90;99.90;;;;;;4994158;28;20173;-73
2021/01/27 07:08:53;;;;;;;9.48;8.45;;;2.90;99.90;;;;;;4984769;28;20234;-73
2021/01/27 07:11:48;;;;;;;10.70;9.07;;;2.90;99.90;;;;;;4993153;28;20184;-73
2021/01/27 07:14:39;;;;;;;10.52;8.13;;;2.90;99.90;;;;;;4994507;28;20220;-73
2021/01/27 07:17:32;;;;;;;9.93;8.77;;;2.90;99.90;;;;;;4994361;28;20178;-72
2021/01/27 07:20:13;;;;;;;10.25;8.75;;;2.90;99.90;;;;;;4994436;28;20201;-73
2021/01/27 07:22:50;;;;;;;9.60;8.32;;;2.90;99.90;;;;;;4994317;28;20190;-72
2021/01/27 07:25:26;;;;;;;9.82;8.25;;;2.90;99.90;;;;;;4993899;28;20162;-73
2021/01/27 07:27:59;;;;;;;10.68;8.80;;;2.90;99.90;;;;;;4994185;28;20201;-73
2021/01/27 07:30:45;;;;;;;9.30;8.40;;;3.00;99.90;;;;;;4992933;28;20523;-73
2021/01/27 07:33:17;;;;;;;9.05;8.15;;;3.00;99.90;;;;;;4994387;28;20727;-72
2021/01/27 07:36:15;;;;;;;11.07;8.65;;;3.00;99.90;;;;;;5009292;28;20711;-73
2021/01/27 07:38:43;;;;;;;9.88;8.27;;;3.00;99.90;;;;;;4992456;28;20201;-72
2021/01/27 07:41:20;;;;;;;9.35;8.43;;;3.00;99.90;;;;;;4993942;28;20615;-72
2021/01/27 07:44:06;;;;;;;9.30;8.40;;;3.00;99.90;;;;;;5008990;28;20197;-72
2021/01/27 07:46:40;;;;;;;11.32;8.63;;;3.00;99.90;;;;;;4992390;28;20177;-74
2021/01/27 07:49:06;;;;;;;10.35;8.43;;;3.00;99.90;;;;;;4993906;28;20687;-73
2021/01/27 07:51:54;;;;;;;9.95;8.95;;;3.00;99.90;;;;;;4994033;28;20216;-73
2021/01/27 07:54:50;;;;;;;9.73;8.82;;;3.00;99.90;;;;;;5008459;28;20218;-73
2021/01/27 07:57:43;;;;;;;11.20;8.65;;;3.00;99.90;;;;;;4991766;28;20213;-73
2021/01/27 08:00:25;;;;;;;11.32;9.60;;;3.00;99.90;;;;;;4994023;28;20656;-72
2021/01/27 08:03:07;;;;;;;11.48;9.05;;;3.00;99.90;;;;;;4993651;28;20268;-73
2021/01/27 08:05:37;;;;;;;10.43;9.32;;;3.00;99.90;;;;;;4993797;28;20205;-73
2021/01/27 08:08:22;;;;;;;11.57;8.85;;;3.00;99.90;;;;;;5008065;28;20679;-73
2021/01/27 08:10:51;;;;;;;10.25;8.73;;;3.00;99.90;;;;;;4993828;28;20165;-73
2021/01/27 08:13:26;;;;;;;9.70;8.70;;;3.00;99.90;;;;;;4993511;28;20222;-73
2021/01/27 08:16:08;;;;;;;10.98;8.88;;;3.00;99.90;;;;;;4993284;28;20220;-72
2021/01/27 08:18:34;;;;;;;10.65;9.18;;;3.00;99.90;;;;;;4993509;28;20286;-73
2021/01/27 08:21:30;;;;;;;11.88;9.40;;;3.00;99.90;;;;;;4993648;28;20173;-73
2021/01/27 08:23:56;;;;;;;10.65;8.68;;;3.00;99.90;;;;;;4980481;28;20631;-72
2021/01/27 08:26:40;;;;;;;10.07;9.13;;;3.00;99.90;;;;;;4993867;28;20281;-72
2021/01/27 08:29:11;;;;;;;11.07;8.95;;;3.00;99.90;;;;;;4993074;28;20276;-72
2021/01/27 08:31:36;;;;;;;9.88;8.38;;;3.10;99.90;;;;;;4993391;28;20182;-73
2021/01/27 08:34:02;;;;;;;9.65;8.65;;;3.10;99.90;;;;;;4991810;28;20212;-73
2021/01/27 08:36:31;;;;;;;10.07;8.40;;;3.10;99.90;;;;;;4992519;28;20253;-73
2021/01/27 08:38:56;;;;;;;10.75;8.32;;;3.10;99.90;;;;;;4992486;28;20200;-73
2021/01/27 08:41:50;;;;;;;10.68;9.57;;;3.00;99.90;;;;;;4993236;28;20174;-73
2021/01/27 08:44:19;;;;;;;10.43;9.35;;;3.10;99.90;;;;;;4991324;28;20200;-73
2021/01/27 08:46:51;;;;;;;8.98;8.07;;;3.10;99.90;;;;;;4993490;28;20257;-72
2021/01/27 08:49:36;;;;;;;9.98;8.98;;;3.10;99.90;;;;;;4992820;28;20194;-72
2021/01/27 08:52:23;;;;;;;9.00;8.10;;;3.10;99.90;;;;;;4993090;28;20253;-73
2021/01/27 08:54:51;;;;;;;10.82;8.63;;;3.10;99.90;;;;;;4981875;28;20601;-73
2021/01/27 08:57:31;;;;;;;11.48;8.80;;;3.00;99.90;;;;;;4992744;28;20185;-72
2021/01/27 09:00:32;;;;;;;10.60;8.18;;;3.30;99.90;;;;;;4991500;28;20177;-78
2021/01/27 09:03:00;;;;;;;9.77;8.77;;;3.30;99.90;;;;;;5008038;28;20202;-76
2021/01/27 09:05:26;;;;;;;12.50;9.23;;;3.10;99.90;;;;;;4991797;28;20182;-76
2021/01/27 09:08:18;;;;;;;9.85;8.38;;;3.20;99.90;;;;;;4992213;28;20197;-77
2021/01/27 09:10:47;;;;;;;11.30;8.18;;;3.20;99.90;;;;;;4991229;28;20185;-77
2021/01/27 09:13:22;;;;;;;11.98;8.48;;;3.20;99.90;;;;;;4992502;28;20190;-76
2021/01/27 09:16:10;;;;;;;11.40;9.10;;;3.20;99.90;;;;;;4992328;28;20209;-77
2021/01/27 09:18:37;;;;;;;9.75;8.75;;;3.20;99.90;;;;;;4992803;28;20194;-77
2021/01/27 09:21:20;;;;;;;10.05;9.05;;;3.30;99.90;;;;;;5007597;28;20202;-76
2021/01/27 09:23:54;;;;;;;10.40;9.35;;;3.30;99.90;;;;;;4992434;28;20203;-76
2021/01/27 09:26:34;;;;;;;11.13;9.10;;;3.30;99.90;;;;;;4991080;28;20221;-77
2021/01/27 09:29:07;;;;;;;11.45;9.60;;;3.30;99.90;;;;;;4992628;28;20212;-77
2021/01/27 09:31:33;;;;;;;9.60;8.60;;;3.40;99.90;;;;;;5007321;28;20177;-76
2021/01/27 09:33:59;;;;;;;10.55;8.90;;;3.30;99.90;;;;;;4992583;28;20205;-77
2021/01/27 09:36:28;;;;;;;10.20;8.95;;;3.50;99.90;;;;;;4992632;28;20182;-78
2021/01/27 09:38:57;;;;;;;9.75;8.85;;;3.70;99.90;;;;;;4990732;28;20202;-77
2021/01/27 09:41:28;;;;;;;10.02;9.02;;;3.70;99.90;;;;;;4992463;28;20170;-77
2021/01/27 09:43:56;;;;;;;11.80;9.90;;;3.70;99.90;;;;;;4992381;28;20285;-78
2021/01/27 09:46:31;;;;;;;10.50;9.45;;;3.80;99.90;;;;;;5007544;28;20228;-77
2021/01/27 09:49:05;;;;;;;9.93;8.48;;;3.90;99.90;;;;;;4993381;28;20205;-75
2021/01/27 09:51:31;;;;;;;10.50;8.55;;;3.90;99.90;;;;;;4986193;28;20261;-74
2021/01/27 09:54:02;;;;;;;12.13;9.48;;;4.10;99.90;;;;;;4993929;28;20193;-78
2021/01/27 09:56:29;;;;;;;9.85;8.60;;;4.10;99.90;;;;;;4984966;28;20178;-78
2021/01/27 09:58:56;;;;;;;10.75;8.48;;;4.20;99.90;;;;;;4986754;28;20225;-78
2021/01/27 10:01:33;;;;;;;10.15;9.13;;;4.30;99.90;;;;;;4994606;28;20575;-74
2021/01/27 10:04:11;;;;;;;13.93;9.70;;;4.40;99.90;;;;;;4983691;28;20202;-76
2021/01/27 10:06:52;;;;;;;11.48;9.27;;;4.50;99.90;;;;;;4983560;28;20186;-75
2021/01/27 10:09:27;;;;;;;9.55;8.25;;;4.50;99.90;;;;;;4982966;28;20233;-76
2021/01/27 10:12:09;;;;;;;9.85;8.95;;;4.70;99.90;;;;;;4994275;28;20228;-75
2021/01/27 10:14:39;;;;;;;9.68;8.02;;;4.70;99.90;;;;;;4992343;28;20316;-76
2021/01/27 10:17:07;;;;;;;9.13;8.23;;;4.90;99.90;;;;;;4993977;28;20174;-76
2021/01/27 10:19:43;;;;;;;11.02;8.00;;;4.90;99.90;;;;;;4995078;28;20196;-76
2021/01/27 10:22:11;;;;;;;9.35;7.72;;;5.00;99.90;;;;;;4992753;28;20185;-77
2021/01/27 10:24:46;;;;;;;8.88;7.85;;;5.00;99.90;;;;;;4995870;28;20218;-76
2021/01/27 10:27:40;;;;;;;11.18;7.70;;;5.10;99.90;;;;;;4993530;28;20169;-76
2021/01/27 10:30:15;;;;;;;9.07;7.93;;;5.10;99.90;;;;;;4985418;28;20272;-76
2021/01/27 10:32:43;;;;;;;8.73;7.82;;;5.20;99.90;;;;;;4990260;28;20754;-78
2021/01/27 10:35:30;;;;;;;7.55;6.82;;;5.30;99.90;;;;;;4993674;28;20319;-80
2021/01/27 10:38:05;;;;;;;9.65;7.57;;;5.30;99.90;;;;;;4995192;28;20629;-78
2021/01/27 10:40:31;;;;;;;8.13;7.38;;;5.40;99.90;;;;;;4990046;28;20170;-78
2021/01/27 10:43:00;;;;;;;8.05;7.25;;;6.00;99.90;;;;;;4993286;28;20229;-77
2021/01/27 10:45:40;;;;;;;7.70;6.95;;;5.50;99.90;;;;;;4993167;28;20201;-76
2021/01/27 10:48:11;;;;;;;7.70;7.00;;;5.60;99.90;;;;;;4992510;28;20778;-77
2021/01/27 10:50:44;;;;;;;9.20;6.95;;;5.60;99.90;;;;;;4991770;28;20206;-77
2021/01/27 10:53:11;;;;;;;10.02;7.57;;;5.60;99.90;;;;;;4992799;28;20206;-76
2021/01/27 10:55:39;;;;;;;7.20;6.60;;;5.60;99.90;;;;;;4994880;28;20476;-77
2021/01/27 10:58:08;;;;;;;8.32;6.93;;;5.60;99.90;;;;;;4993414;28;20664;-77
2021/01/27 11:00:35;;;;;;;7.82;6.85;;;5.70;99.90;;;;;;4993032;28;20236;-78
2021/01/27 11:03:00;;;;;;;7.97;7.25;;;5.70;99.90;;;;;;4994987;28;20264;-77
2021/01/27 11:05:27;;;;;;;8.48;7.28;;;5.80;99.90;;;;;;4994728;28;20727;-77
2021/01/27 11:07:54;;;;;;;8.10;7.10;;;5.90;99.90;;;;;;4992873;28;20233;-77
2021/01/27 11:10:20;;;;;;;7.90;7.10;;;5.90;99.90;;;;;;4995022;28;20181;-77
2021/01/27 11:12:45;;;;;;;7.30;6.68;;;5.90;99.90;;;;;;4993543;28;20206;-77
2021/01/27 11:15:11;;;;;;;7.25;6.63;;;6.00;99.90;;;;;;4994574;28;20304;-77
2021/01/27 11:17:37;;;;;;;6.95;6.25;;;6.00;99.90;;;;;;4994582;28;20221;-77
2021/01/27 11:20:05;;;;;;;6.95;6.00;;;5.90;99.90;;;;;;4992896;28;20232;-77
2021/01/27 11:22:30;;;;;;;7.85;7.15;;;5.90;99.90;;;;;;4994510;28;20178;-77
2021/01/27 11:24:56;;;;;;;7.18;6.47;;;5.90;99.90;;;;;;4993801;28;20256;-77
2021/01/27 11:27:22;;;;;;;9.35;6.68;;;6.00;99.90;;;;;;4994843;28;20170;-77
2021/01/27 11:29:48;;;;;;;10.02;6.78;;;6.00;99.90;;;;;;4993082;28;20658;-77
2021/01/27 11:32:14;;;;;;;7.63;6.93;;;6.00;99.90;;;;;;4994263;28;20170;-77
2021/01/27 11:34:41;;;;;;;7.82;7.03;;;6.10;99.90;;;;;;4994507;28;20213;-77
2021/01/27 11:37:07;;;;;;;7.53;6.80;;;6.10;99.90;;;;;;4994050;28;20221;-77
2021/01/27 11:39:33;;;;;;;6.97;5.50;;;6.10;99.90;;;;;;4973067;28;20206;-77
2021/01/27 11:41:59;;;;;;;9.18;6.70;;;6.10;99.50;;;;;;4971765;28;20179;-76
2021/01/27 11:44:25;;;;;;;6.35;5.65;;;6.20;99.90;;;;;;4982565;28;20198;-76
2021/01/27 11:46:51;;;;;;;6.82;6.13;;;6.20;98.70;;;;;;4991997;28;20720;-77
2021/01/27 11:49:17;;;;;;;7.68;6.07;;;6.20;98.30;;;;;;4991927;28;20211;-76
2021/01/27 11:51:43;;;;;;;7.53;6.20;;;6.30;98.20;;;;;;4992492;28;20269;-76
2021/01/27 11:54:09;;;;;;;6.80;6.15;;;6.30;97.70;;;;;;4993581;28;20519;-76
2021/01/27 11:56:35;;;;;;;6.85;5.82;;;6.30;97.80;;;;;;4993934;28;20181;-76
2021/01/27 11:59:01;;;;;;;7.05;6.00;;;6.30;97.70;;;;;;4993547;28;20214;-76
2021/01/27 12:01:29;;;;;;;7.47;6.30;;;6.30;97.50;;;;;;4992905;28;20687;-77
2021/01/27 12:03:55;;;;;;;8.52;6.40;;;6.40;97.10;;;;;;4993156;28;20201;-77
2021/01/27 12:06:21;;;;;;;5.63;5.13;;;6.40;97.70;;;;;;4993409;28;20170;-74
2021/01/27 12:08:47;;;;;;;6.60;5.97;;;6.50;96.70;;;;;;4992833;28;20225;-77
2021/01/27 12:11:14;;;;;;;7.43;6.50;;;6.50;96.40;;;;;;4992243;28;20627;-79
2021/01/27 12:13:42;;;;;;;6.45;5.85;;;6.50;95.90;;;;;;4992085;28;20205;-77
2021/01/27 12:16:07;;;;;;;10.80;6.82;;;6.60;95.50;;;;;;4992299;28;20252;-78
2021/01/27 12:18:33;;;;;;;6.70;6.10;;;6.60;95.60;;;;;;4992847;28;20685;-79
2021/01/27 12:20:59;;;;;;;7.25;6.40;;;6.50;95.70;;;;;;5002252;28;20198;-79
2021/01/27 12:23:26;;;;;;;6.00;5.47;;;6.60;95.90;;;;;;4993816;28;20214;-79
2021/01/27 12:25:51;;;;;;;7.50;6.63;;;6.50;95.50;;;;;;4994560;28;20208;-77
2021/01/27 12:28:17;;;;;;;6.63;6.03;;;6.60;96.20;;;;;;4996895;28;20201;-78
2021/01/27 12:30:43;;;;;;;6.40;5.80;;;6.60;96.60;;;;;;4995468;28;20188;-77
2021/01/27 12:33:10;;;;;;;7.57;5.68;;;6.60;96.10;;;;;;4993278;28;20711;-76
2021/01/27 12:35:35;;;;;;;6.93;5.82;;;6.70;95.70;;;;;;4991522;28;20272;-75
2021/01/27 12:38:02;;;;;;;6.95;6.18;;;6.70;95.10;;;;;;4982539;28;20213;-72
2021/01/27 12:40:29;;;;;;;6.72;5.68;;;6.70;95.50;;;;;;4972228;28;20598;-73
2021/01/27 12:42:54;;;;;;;6.60;5.60;;;6.70;95.60;;;;;;4972116;28;20237;-75
2021/01/27 12:45:23;;;;;;;6.15;5.50;;;6.80;95.00;;;;;;4972426;28;20536;-74
2021/01/27 12:47:49;;;;;;;6.38;5.72;;;6.80;93.50;;;;;;4973545;28;20208;-74
2021/01/27 12:50:16;;;;;;;6.68;5.95;;;6.90;93.50;;;;;;4973644;28;20625;-74
2021/01/27 12:52:42;;;;;;;5.30;4.80;;;6.90;92.80;;;;;;4976974;28;20276;-74
2021/01/27 12:55:11;;;;;;;7.07;5.40;;;6.90;92.70;;;;;;4992582;28;20593;-75
2021/01/27 12:57:42;;;;;;;6.82;5.13;;;6.90;92.10;;;;;;4992685;28;20193;-75
2021/01/27 13:00:11;;;;;;;6.57;5.97;;;7.00;92.10;;;;;;4992667;28;20717;-78
2021/01/27 13:02:36;;;;;;;5.95;5.35;;;6.90;92.00;;;;;;4992226;28;20197;-75
2021/01/27 13:05:02;;;;;;;5.90;5.18;;;6.90;92.20;;;;;;4993071;28;20209;-74
2021/01/27 13:07:28;;;;;;;6.20;5.30;;;7.00;92.10;;;;;;4993158;28;20188;-78
2021/01/27 13:09:54;;;;;;;6.53;5.68;;;7.00;91.00;;;;;;4988145;28;20225;-79
2021/01/27 13:12:20;;;;;;;6.75;5.47;;;7.10;91.20;;;;;;4986557;28;20181;-79
2021/01/27 13:14:46;;;;;;;6.47;5.78;;;7.00;90.90;;;;;;4978250;28;20209;-80
2021/01/27 13:17:12;;;;;;;6.20;5.55;;;7.00;90.80;;;;;;4981319;28;20256;-79
2021/01/27 13:19:38;;;;;;;6.25;4.95;;;7.00;90.80;;;;;;4990653;28;20285;-72
2021/01/27 13:22:03;;;;;;;5.43;4.93;;;7.10;90.10;;;;;;4989969;28;20177;-71
2021/01/27 13:24:29;;;;;;;5.97;5.05;;;7.10;89.00;;;;;;4979626;28;20201;-72
2021/01/27 13:26:55;;;;;;;6.50;4.95;;;7.10;89.30;;;;;;4988376;28;20181;-72
2021/01/27 13:29:21;;;;;;;6.70;5.63;;;7.00;88.90;;;;;;4988338;28;20197;-71
2021/01/27 13:31:46;;;;;;;5.45;4.55;;;7.00;88.70;;;;;;4988716;28;20182;-72
2021/01/27 13:34:12;;;;;;;8.52;5.25;;;6.90;88.80;;;;;;4987552;28;20205;-72
2021/01/27 13:36:39;;;;;;;5.50;5.00;;;6.90;88.10;;;;;;4989325;28;20634;-72
2021/01/27 13:39:05;;;;;;;4.07;3.67;;;6.80;88.40;;;;;;4988345;28;20221;-72
2021/01/27 13:41:31;;;;;;;5.18;3.50;;;6.80;86.40;;;;;;4988903;28;20582;-72
2021/01/27 13:43:56;;;;;;;4.72;3.85;;;6.80;86.10;;;;;;4989484;28;20256;-72
2021/01/27 13:46:22;;;;;;;3.78;3.47;;;6.80;85.10;;;;;;4989676;28;20264;-74
2021/01/27 13:48:48;;;;;;;4.68;4.13;;;;;;;;;;4991406;28;20540;-78
2021/01/27 13:51:14;;;;;;;4.85;4.45;;;6.90;83.90;;;;;;4990911;28;20632;-78
2021/01/27 13:53:40;;;;;;;3.75;3.42;;;6.80;85.40;;;;;;4989257;28;20193;-77
2021/01/27 13:56:06;;;;;;;3.95;3.65;;;6.80;82.60;;;;;;4987871;28;20214;-76
2021/01/27 13:58:32;;;;;;;4.55;3.85;;;6.80;82.40;;;;;;4989891;28;20194;-79
2021/01/27 14:00:58;;;;;;;3.53;3.20;;;6.70;83.70;;;;;;4988968;28;20198;-78
2021/01/27 14:03:23;;;;;;;2.83;2.63;;;6.60;82.90;;;;;;4989760;28;20193;-78
2021/01/27 14:05:49;;;;;;;4.90;3.67;;;6.60;82.30;;;;;;4989664;28;20189;-78
2021/01/27 14:08:15;;;;;;;3.75;3.17;;;6.60;82.30;;;;;;4990559;28;20240;-78
2021/01/27 14:10:41;;;;;;;5.00;3.40;;;6.60;81.70;;;;;;4989519;28;20664;-78
2021/01/27 14:13:07;;;;;;;4.13;3.20;;;6.60;82.00;;;;;;4989876;28;20217;-77
2021/01/27 14:15:33;;;;;;;5.50;3.47;;;6.60;82.40;;;;;;4989577;28;20543;-78
2021/01/27 14:17:59;;;;;;;3.65;3.35;;;6.50;83.00;;;;;;4989989;28;20665;-77
2021/01/27 14:20:27;;;;;;;5.55;3.70;;;6.40;82.40;;;;;;4990946;28;20614;-71
2021/01/27 14:22:53;;;;;;;3.92;3.17;;;6.30;81.20;;;;;;4985843;28;20225;-72
2021/01/27 14:25:19;;;;;;;4.15;3.35;;;6.20;81.00;;;;;;4992124;28;20583;-71
2021/01/27 14:27:51;;;;;;;3.90;3.40;;;6.10;81.80;;;;;;4991973;28;20205;-72
2021/01/27 14:30:19;;;;;;;3.30;3.00;;;6.10;81.60;;;;;;4990070;28;20178;-70
2021/01/27 14:32:44;;;;;;;3.92;3.40;;;6.00;82.50;;;;;;4992170;28;20237;-77
2021/01/27 14:35:11;;;;;;;4.82;3.65;;;6.00;82.70;;;;;;4993916;28;20241;-76
2021/01/27 14:37:37;;;;;;;4.38;3.33;;;6.00;82.90;;;;;;4979651;28;20247;-77
2021/01/27 14:40:05;;;;;;;3.88;3.50;;;6.00;83.20;;;;;;4983060;28;20239;-78
2021/01/27 14:42:30;;;;;;;5.43;3.53;;;5.90;83.30;;;;;;4993123;28;20209;-77
2021/01/27 14:44:56;;;;;;;5.00;4.10;;;5.80;82.70;;;;;;4982470;28;20576;-78
2021/01/27 14:47:22;;;;;;;4.68;3.58;;;5.70;83.40;;;;;;4988277;28;20174;-79
2021/01/27 14:49:48;;;;;;;4.38;3.95;;;5.70;83.70;;;;;;4985462;28;20201;-77
2021/01/27 14:52:14;;;;;;;4.07;3.70;;;5.70;84.70;;;;;;4984987;28;20640;-78
2021/01/27 14:54:39;;;;;;;4.88;3.72;;;5.70;84.20;;;;;;4982927;28;20218;-78
2021/01/27 14:57:06;;;;;;;3.63;3.33;;;5.70;84.80;;;;;;4993682;28;20244;-78
2021/01/27 14:59:32;;;;;;;4.25;3.60;;;5.60;84.60;;;;;;4994887;28;20751;-76
2021/01/27 15:01:57;;;;;;;4.10;3.70;;;5.60;85.50;;;;;;4983842;28;20418;-81
2021/01/27 15:04:24;;;;;;;5.10;4.10;;;5.60;86.60;;;;;;4980964;28;20290;-69
2021/01/27 15:06:49;;;;;;;5.13;3.63;;;5.50;87.60;;;;;;4993694;28;20177;-70
2021/01/27 15:09:17;;;;;;;4.93;4.10;;;5.50;87.50;;;;;;4989325;28;20279;-75
2021/01/27 15:11:43;;;;;;;5.22;3.67;;;5.40;87.90;;;;;;4994149;28;20178;-80
2021/01/27 15:14:09;;;;;;;4.55;4.15;;;5.40;87.60;;;;;;4994360;28;20190;-76
2021/01/27 15:16:34;;;;;;;5.05;4.00;;;5.30;88.10;;;;;;4994838;28;20256;-78
2021/01/27 15:19:00;;;;;;;5.90;4.53;;;5.30;87.60;;;;;;4995091;28;20202;-76
2021/01/27 15:21:26;;;;;;;5.00;4.50;;;5.30;87.90;;;;;;4990891;28;20536;-76
2021/01/27 15:23:53;;;;;;;5.28;4.32;;;5.30;89.10;;;;;;4990050;28;20194;-77
2021/01/27 15:26:18;;;;;;;6.63;5.00;;;5.20;89.20;;;;;;5003994;28;20190;-76
2021/01/27 15:28:45;;;;;;;6.53;5.72;;;5.20;89.20;;;;;;5004549;28;20221;-76
2021/01/27 15:31:11;;;;;;;7.13;5.63;;;5.10;89.80;;;;;;4989261;28;20184;-77
2021/01/27 15:33:37;;;;;;;6.43;5.82;;;5.10;89.70;;;;;;4988819;28;20258;-77
2021/01/27 15:36:04;;;;;;;7.07;5.63;;;5.00;90.30;;;;;;4990944;28;20268;-76
2021/01/27 15:38:31;;;;;;;6.28;5.68;;;5.00;91.00;;;;;;4993380;28;20198;-76
2021/01/27 15:40:59;;;;;;;7.13;5.80;;;5.00;90.90;;;;;;4988981;28;20209;-76
2021/01/27 15:43:25;;;;;;;7.53;6.32;;;5.00;91.10;;;;;;5004375;28;20209;-77
2021/01/27 15:45:51;;;;;;;5.97;5.40;;;4.90;91.30;;;;;;4974954;28;20171;-77
2021/01/27 15:48:18;;;;;;;8.05;5.82;;;4.90;91.50;;;;;;4995304;28;20508;-73
2021/01/27 15:50:47;;;;;;;9.00;5.82;;;4.90;91.30;;;;;;4972849;28;20175;-73
2021/01/27 15:53:13;;;;;;;6.72;6.03;;;4.70;91.30;;;;;;4989652;28;20686;-72
2021/01/27 15:55:39;;;;;;;9.73;6.30;;;4.60;91.30;;;;;;4993332;28;20213;-73
2021/01/27 15:58:05;;;;;;;11.20;8.80;;;4.60;91.60;;;;;;4990077;28;20197;-74
2021/01/27 16:00:32;;;;;;;15.15;10.57;;;4.50;91.60;;;;;;4991409;28;20558;-74
2021/01/27 16:02:58;;;;;;;13.88;10.70;;;4.40;92.10;;;;;;4990222;28;20200;-71
2021/01/27 16:05:28;;;;;;;11.73;9.38;;;4.40;92.00;;;;;;4992294;28;20196;-74
2021/01/27 16:07:54;;;;;;;13.23;8.18;;;4.30;92.40;;;;;;4991576;28;20683;-73
2021/01/27 16:10:21;;;;;;;8.30;7.22;;;4.30;92.70;;;;;;4990067;28;20174;-73
2021/01/27 16:12:50;;;;;;;8.30;6.57;;;4.20;92.90;;;;;;4991143;28;20209;-74
2021/01/27 16:15:20;;;;;;;7.50;6.80;;;4.20;92.90;;;;;;4991410;28;20198;-73
2021/01/27 16:17:46;;;;;;;7.13;5.28;;;4.10;93.30;;;;;;4980801;28;20205;-73
2021/01/27 16:20:12;;;;;;;7.18;6.47;;;4.00;93.00;;;;;;4984837;28;20174;-73
2021/01/27 16:22:38;;;;;;;8.20;6.55;;;4.00;92.70;;;;;;4983708;28;20788;-73
2021/01/27 16:25:05;;;;;;;8.85;6.30;;;3.90;93.20;;;;;;4991031;28;20269;-73
2021/01/27 16:27:31;;;;;;;6.97;6.28;;;3.90;93.80;;;;;;4989072;28;20280;-73
2021/01/27 16:29:57;;;;;;;8.75;7.18;;;3.80;93.70;;;;;;4992314;28;20208;-73
2021/01/27 16:32:23;;;;;;;8.43;7.53;;;3.80;94.10;;;;;;4991277;28;20598;-73
2021/01/27 16:34:48;;;;;;;9.18;7.32;;;3.80;94.20;;;;;;4991463;28;20209;-73
2021/01/27 16:37:15;;;;;;;9.15;7.88;;;3.70;94.80;;;;;;4989817;28;20181;-72
2021/01/27 16:39:44;;;;;;;10.02;8.30;;;3.60;95.60;;;;;;4988736;28;20563;-73
2021/01/27 16:42:10;;;;;;;10.45;8.07;;;3.70;95.90;;;;;;4991123;28;20260;-72
2021/01/27 16:44:36;;;;;;;8.30;7.50;;;3.70;96.30;;;;;;4988591;28;20328;-72
2021/01/27 16:47:03;;;;;;;9.50;8.25;;;3.60;96.30;;;;;;4992536;28;20701;-73
2021/01/27 16:49:29;;;;;;;9.23;8.25;;;3.60;96.50;;;;;;4986735;28;20200;-72
2021/01/27 16:51:55;;;;;;;9.35;8.45;;;3.60;96.60;;;;;;4991260;28;20642;-72
2021/01/27 16:54:21;;;;;;;9.77;8.80;;;3.60;97.00;;;;;;4990448;28;20933;-77
2021/01/27 16:56:47;;;;;;;8.38;7.57;;;3.50;97.60;;;;;;4988640;28;20265;-76
2021/01/27 16:59:13;;;;;;;10.18;9.18;;;3.50;97.40;;;;;;4989632;28;20587;-75
2021/01/27 17:01:38;;;;;;;13.93;11.23;;;3.50;97.70;;;;;;4991623;28;20207;-74
2021/01/27 17:04:04;;;;;;;14.02;12.00;;;3.50;97.90;;;;;;4992871;28;20197;-77
2021/01/27 17:06:30;;;;;;;21.45;15.93;;;3.40;98.40;;;;;;4992683;28;20182;-76
2021/01/27 17:08:56;;;;;;;22.83;17.08;;;3.40;98.40;;;;;;4992080;28;20260;-77
2021/01/27 17:11:21;;;;;;;19.60;14.60;;;3.40;98.80;;;;;;4992309;28;20566;-77
2021/01/27 17:13:47;;;;;;;18.45;13.05;;;3.30;98.50;;;;;;4992669;28;20656;-76
2021/01/27 17:16:14;;;;;;;18.55;12.57;;;3.30;98.80;;;;;;4992429;28;20233;-77
2021/01/27 17:18:40;;;;;;;17.27;11.65;;;3.50;98.50;;;;;;4992797;28;20221;-77
2021/01/27 17:21:06;;;;;;;12.13;9.75;;;3.40;98.70;;;;;;4990709;28;20372;-76